Station Historical Data
Daily Summary for June 4, 2017 Units:  Metric    English   Both
« Previous Day
Next Day »
Daily Weekly Monthly Yearly Custom
  High: Low: Average:
Temperature: 26.1 °C 20.9 °C 22.4 °C
Dew Point: 21.5 °C 18.3 °C 19.9 °C
Humidity: 93% 74% 86%
Wind Speed: 1.6km/h 0km/h 0km/h
Wind Gust: 4.8km/h - -
Wind- - NW
Pressure: 1016.1 hPa 1011.7 hPa -
Precipitation: 13.97 mm    
Historical Graphs
 
 
Tabular Data for June 4, 2017
Time Temperature Dew Point Pressure Wind Wind Speed Wind Gust Humidity Rainfall Rate (Hourly) solar Conditions
00:00 22.8 °C 19 °C 1016.1 hPa Calm     79% 0 mm WeatherDisplay:10.37 W/m2 SCT
00:10 22.7 °C 19.1 °C 1016.1 hPa Calm     80% 0 mm WeatherDisplay:10.37 W/m2 SCT
00:20 22.6 °C 18.9 °C 1015.8 hPa Calm     80% 0 mm WeatherDisplay:10.37 W/m2 SCT
00:30 22.4 °C 19 °C 1015.8 hPa Calm     81% 0 mm WeatherDisplay:10.37 W/m2 SCT
00:40 22.3 °C 18.9 °C 1015.8 hPa Calm     81% 0 mm WeatherDisplay:10.37 W/m2 SCT
00:50 22.3 °C 18.8 °C 1015.8 hPa Calm     81% 0 mm WeatherDisplay:10.37 W/m2 SCT
01:00 22.2 °C 18.9 °C 1015.8 hPa Calm     82% 0 mm WeatherDisplay:10.37 W/m2 SCT
01:10 22.1 °C 18.9 °C 1015.8 hPa Calm     82% 0 mm WeatherDisplay:10.37 W/m2 SCT
01:20 22 °C 19 °C 1015.8 hPa Calm     83% 0 mm WeatherDisplay:10.37 W/m2 SCT
01:30 21.9 °C 18.9 °C 1015.8 hPa Calm     83% 0 mm WeatherDisplay:10.37 W/m2 SCT
01:40 21.9 °C 19.1 °C 1015.8 hPa Calm     84% 0 mm WeatherDisplay:10.37 W/m2 SCT
01:50 22.1 °C 19.1 °C 1015.8 hPa Calm     83% 0 mm WeatherDisplay:10.37 W/m2 SCT
02:00 22.1 °C 19.1 °C 1015.8 hPa Calm     83% 0 mm WeatherDisplay:10.37 W/m2 SCT
02:10 21.9 °C 18.9 °C 1015.5 hPa Calm     83% 0 mm WeatherDisplay:10.37 W/m2 SCT
02:20 21.7 °C 18.9 °C 1015.5 hPa Calm     84% 0 mm WeatherDisplay:10.37 W/m2 SCT
02:30 21.6 °C 18.7 °C 1015.5 hPa Calm     84% 0 mm WeatherDisplay:10.37 W/m2 SCT
02:40 21.5 °C 18.9 °C 1015.5 hPa Calm     85% 0 mm WeatherDisplay:10.37 W/m2 SCT
02:50 21.4 °C 18.8 °C 1015.5 hPa Calm     85% 0 mm WeatherDisplay:10.37 W/m2 SCT
03:00 21.4 °C 18.9 °C 1015.5 hPa Calm     86% 0 mm WeatherDisplay:10.37 W/m2 SCT
03:10 21.4 °C 18.9 °C 1015.5 hPa Calm     86% 0 mm WeatherDisplay:10.37 W/m2 SCT
03:20 20.9 °C 18.3 °C 1015.5 hPa Calm     85% 0 mm WeatherDisplay:10.37 W/m2 SCT
03:30 20.9 °C 18.3 °C 1015.5 hPa Calm     85% 0 mm WeatherDisplay:10.37 W/m2 SCT
03:40 20.9 °C 18.3 °C 1015.1 hPa Calm     85% 0 mm WeatherDisplay:10.37 W/m2 SCT
03:50 20.9 °C 18.3 °C 1015.1 hPa Calm     85% 0 mm WeatherDisplay:10.37 W/m2 SCT
04:10 20.9 °C 18.3 °C 1015.1 hPa Calm     85% 0 mm WeatherDisplay:10.37 W/m2 SCT
04:20 20.9 °C 18.3 °C 1015.1 hPa Calm     85% 0 mm WeatherDisplay:10.37 W/m2 SCT
04:30 20.9 °C 18.3 °C 1015.1 hPa Calm     85% 0 mm WeatherDisplay:10.37 W/m2 SCT
04:40 20.9 °C 18.3 °C 1015.1 hPa Calm     85% 0 mm WeatherDisplay:10.37 W/m2 SCT
04:50 20.9 °C 18.3 °C 1015.1 hPa Calm     85% 0 mm WeatherDisplay:10.37 W/m2 SCT
05:00 20.9 °C 18.3 °C 1015.1 hPa Calm     85% 0 mm WeatherDisplay:10.37 W/m2 SCT
05:10 20.9 °C 18.3 °C 1015.1 hPa Calm     85% 0 mm WeatherDisplay:10.37 W/m2 SCT
05:20 20.9 °C 18.3 °C 1015.1 hPa Calm     85% 0 mm WeatherDisplay:10.37 W/m2 SCT
05:30 20.9 °C 18.3 °C 1015.1 hPa Calm     85% 0 mm WeatherDisplay:10.37 W/m2 SCT
05:40 20.9 °C 18.3 °C 1015.1 hPa Calm     85% 0 mm WeatherDisplay:10.37 W/m2 SCT
05:50 20.9 °C 18.3 °C 1015.1 hPa Calm     85% 0 mm WeatherDisplay:10.37 W/m2 SCT
06:00 20.9 °C 18.3 °C 1015.1 hPa Calm     85% 0 mm WeatherDisplay:10.37 W/m2 SCT
06:10 20.9 °C 18.3 °C 1015.5 hPa Calm     85% 0 mm WeatherDisplay:10.37 W/m2 SCT
06:20 20.9 °C 18.3 °C 1015.5 hPa Calm     85% 0 mm WeatherDisplay:10.37 W/m2 SCT
06:30 20.9 °C 18.3 °C 1015.5 hPa Calm     85% 0 mm WeatherDisplay:10.37 W/m2 SCT
06:40 20.9 °C 18.3 °C 1015.5 hPa Calm     85% 0 mm WeatherDisplay:10.37 W/m2 SCT
06:50 20.9 °C 18.3 °C 1015.5 hPa Calm     85% 0 mm WeatherDisplay:10.37 W/m2 SCT
07:00 20.9 °C 18.3 °C 1015.5 hPa Calm     85% 0 mm WeatherDisplay:10.37 W/m2 SCT
07:10 20.9 °C 18.3 °C 1015.8 hPa Calm     85% 0 mm WeatherDisplay:10.37 W/m2 SCT
07:20 20.9 °C 18.3 °C 1015.8 hPa Calm     85% 0 mm WeatherDisplay:10.37 W/m2 SCT
07:30 20.9 °C 18.3 °C 1015.8 hPa Calm     85% 0 mm WeatherDisplay:10.37 W/m2 SCT
07:40 20.9 °C 18.3 °C 1015.8 hPa Calm     85% 0 mm WeatherDisplay:10.37 W/m2 SCT
07:50 20.9 °C 18.3 °C 1015.8 hPa Calm     85% 0 mm WeatherDisplay:10.37 W/m2 SCT
08:00 20.9 °C 18.3 °C 1015.8 hPa Calm     85% 0 mm WeatherDisplay:10.37 W/m2 SCT
08:10 20.9 °C 18.3 °C 1015.8 hPa Calm     85% 0 mm WeatherDisplay:10.37 W/m2 SCT
08:20 20.9 °C 18.3 °C 1015.8 hPa Calm     85% 0 mm WeatherDisplay:10.37 W/m2 SCT
08:30 20.9 °C 18.3 °C 1015.8 hPa Calm     85% 0 mm WeatherDisplay:10.37 W/m2 SCT
08:40 20.9 °C 18.3 °C 1015.8 hPa Calm     85% 0 mm WeatherDisplay:10.37 W/m2 SCT
08:50 22.2 °C 19.9 °C 1015.8 hPa Calm     87% 0 mm WeatherDisplay:10.37 W/m2 SCT
09:00 22.5 °C 20.2 °C 1015.8 hPa Calm     87% 0 mm WeatherDisplay:10.37 W/m2 SCT
09:10 22.8 °C 20.2 °C 1015.8 hPa Calm     85% 0 mm WeatherDisplay:10.37 W/m2 SCT
09:20 23.2 °C 20.5 °C 1015.8 hPa Calm     85% 0 mm WeatherDisplay:10.37 W/m2 SCT
09:30 23.4 °C 20.2 °C 1015.8 hPa Calm     82% 0 mm WeatherDisplay:10.37 W/m2 SCT
09:40 23.6 °C 20.3 °C 1015.8 hPa Calm   1.6 km/h 82% 0 mm WeatherDisplay:10.37 W/m2 SCT
09:50 23.6 °C 20.6 °C 1016.1 hPa Calm     83% 0 mm WeatherDisplay:10.37 W/m2 SCT
10:00 23.4 °C 20.8 °C 1016.1 hPa Calm     85% 0 mm WeatherDisplay:10.37 W/m2 SCT
10:10 22.9 °C 20.9 °C 1015.8 hPa Calm     88% 0.76 mm WeatherDisplay:10.37 W/m2 RA
10:20 22.8 °C 20.9 °C 1015.8 hPa Calm     89% 0.25 mm WeatherDisplay:10.37 W/m2 SCT
10:30 22.7 °C 20.9 °C 1015.8 hPa Calm     90% 0.25 mm WeatherDisplay:10.37 W/m2 SCT
10:40 22.6 °C 20.9 °C 1015.5 hPa Calm     90% 0.25 mm WeatherDisplay:10.37 W/m2 SCT
10:50 22.8 °C 21.2 °C 1015.5 hPa Calm     91% 0 mm WeatherDisplay:10.37 W/m2 SCT
11:00 22.8 °C 21.3 °C 1015.5 hPa Calm     91% 0 mm WeatherDisplay:10.37 W/m2 SCT
11:10 22.9 °C 21.4 °C 1015.5 hPa Calm     91% 0.25 mm WeatherDisplay:10.37 W/m2 SCT
11:20 23 °C 21.3 °C 1015.8 hPa Calm     90% 0 mm WeatherDisplay:10.37 W/m2 SCT
11:30 23.1 °C 21.3 °C 1015.8 hPa Calm     90% 0 mm WeatherDisplay:10.37 W/m2 SCT
11:40 23 °C 21.1 °C 1015.8 hPa Calm     89% 0 mm WeatherDisplay:10.37 W/m2 SCT
11:50 23 °C 21.3 °C 1015.8 hPa Calm     90% 0 mm WeatherDisplay:10.37 W/m2 SCT
12:00 22.9 °C 21.2 °C 1015.8 hPa Calm     90% 0 mm WeatherDisplay:10.37 W/m2 SCT
12:10 23.1 °C 21.3 °C 1016.1 hPa Calm     90% 0 mm WeatherDisplay:10.37 W/m2 SCT
12:20 22.9 °C 21.2 °C 1015.8 hPa Calm     90% 0 mm WeatherDisplay:10.37 W/m2 SCT
12:30 22.8 °C 21.3 °C 1015.8 hPa Calm     91% 0.51 mm WeatherDisplay:10.37 W/m2 RA
12:40 22.7 °C 20.9 °C 1015.8 hPa Calm     90% 0.25 mm WeatherDisplay:10.37 W/m2 SCT
12:50 22.6 °C 21.1 °C 1015.8 hPa Calm     91% 0.25 mm WeatherDisplay:10.37 W/m2 SCT
13:00 22.7 °C 21.3 °C 1015.8 hPa Calm     92% 0 mm WeatherDisplay:10.37 W/m2 SCT
13:10 22.7 °C 21.3 °C 1015.8 hPa Calm     92% 0 mm WeatherDisplay:10.37 W/m2 SCT
13:20 22.7 °C 21.3 °C 1015.5 hPa Calm   3.2 km/h 92% 0.25 mm WeatherDisplay:10.37 W/m2 SCT
13:30 22.6 °C 21.1 °C 1015.5 hPa Calm   3.2 km/h 91% 0 mm WeatherDisplay:10.37 W/m2 SCT
13:40 22.3 °C 20.7 °C 1015.1 hPa Calm   1.6 km/h 91% 0 mm WeatherDisplay:10.37 W/m2 SCT
13:50 22.1 °C 20.4 °C 1015.1 hPa Calm   1.6 km/h 90% 0 mm WeatherDisplay:10.37 W/m2 SCT
14:10 22 °C 20.4 °C 1014.8 hPa Calm   1.6 km/h 91% 0 mm WeatherDisplay:10.37 W/m2 SCT
14:20 22.1 °C 20.6 °C 1014.8 hPa WNW 1.6 km/h 1.6 km/h 91% 0 mm WeatherDisplay:10.37 W/m2 SCT
14:30 22.2 °C 20.5 °C 1014.4 hPa Calm   1.6 km/h 90% 0 mm WeatherDisplay:10.37 W/m2 SCT
14:40 22.6 °C 20.7 °C 1014.1 hPa NW 1.6 km/h 4.8 km/h 89% 0 mm WeatherDisplay:10.37 W/m2 SCT
14:50 23.1 °C 21.2 °C 1014.1 hPa Calm   4.8 km/h 89% 0 mm WeatherDisplay:10.37 W/m2 SCT
15:00 23.5 °C 20.8 °C 1013.8 hPa Calm   1.6 km/h 85% 0 mm WeatherDisplay:10.37 W/m2 SCT
15:10 23.6 °C 21.1 °C 1013.4 hPa Calm   1.6 km/h 86% 0 mm WeatherDisplay:10.37 W/m2 SCT
15:20 23.7 °C 21 °C 1013.4 hPa WNW 1.6 km/h 1.6 km/h 85% 0 mm WeatherDisplay:10.37 W/m2 SCT
15:30 24.1 °C 21.2 °C 1013.1 hPa Calm   3.2 km/h 84% 0 mm WeatherDisplay:10.37 W/m2 SCT
15:40 24.2 °C 21.1 °C 1013.1 hPa WNW 1.6 km/h 4.8 km/h 83% 0 mm WeatherDisplay:10.37 W/m2 SCT
15:50 24.1 °C 21.2 °C 1013.1 hPa Calm   3.2 km/h 84% 0 mm WeatherDisplay:10.37 W/m2 SCT
16:00 24.3 °C 21.2 °C 1013.1 hPa Calm   4.8 km/h 83% 0 mm WeatherDisplay:10.37 W/m2 SCT
16:10 24.6 °C 21.1 °C 1013.1 hPa Calm   4.8 km/h 81% 0 mm WeatherDisplay:10.37 W/m2 SCT
16:20 25 °C 21.5 °C 1012.8 hPa NW 1.6 km/h 3.2 km/h 81% 0 mm WeatherDisplay:10.37 W/m2 SCT
16:30 24.9 °C 21.2 °C 1012.8 hPa Calm   3.2 km/h 80% 0 mm WeatherDisplay:10.37 W/m2 SCT
16:40 25.2 °C 20.7 °C 1012.8 hPa Calm   4.8 km/h 76% 0 mm WeatherDisplay:10.37 W/m2 SCT
16:50 25.5 °C 20.9 °C 1012.8 hPa Calm   3.2 km/h 76% 0 mm WeatherDisplay:10.37 W/m2 SCT
17:00 25.8 °C 21.3 °C 1012.4 hPa Calm   1.6 km/h 76% 0 mm WeatherDisplay:10.37 W/m2 SCT
17:10 26.1 °C 21.1 °C 1012.4 hPa NW 1.6 km/h 3.2 km/h 74% 0 mm WeatherDisplay:10.37 W/m2 SCT
17:20 25.9 °C 20.9 °C 1012.4 hPa Calm   1.6 km/h 74% 0 mm WeatherDisplay:10.37 W/m2 SCT
17:30 25.8 °C 21.5 °C 1012.4 hPa Calm   1.6 km/h 77% 0 mm WeatherDisplay:10.37 W/m2 SCT
17:40 25.7 °C 21.1 °C 1012.4 hPa Calm   1.6 km/h 76% 0 mm WeatherDisplay:10.37 W/m2 SCT
17:50 25.4 °C 21.1 °C 1012.4 hPa Calm   1.6 km/h 77% 0 mm WeatherDisplay:10.37 W/m2 SCT
18:00 25.3 °C 21 °C 1012.4 hPa Calm   1.6 km/h 77% 0 mm WeatherDisplay:10.37 W/m2 SCT
18:10 25.2 °C 21.1 °C 1012.4 hPa Calm   1.6 km/h 78% 0 mm WeatherDisplay:10.37 W/m2 SCT
18:20 25.1 °C 21.2 °C 1012.1 hPa Calm     79% 0 mm WeatherDisplay:10.37 W/m2 SCT
18:30 24.8 °C 21.2 °C 1012.1 hPa Calm   1.6 km/h 80% 0 mm WeatherDisplay:10.37 W/m2 SCT
18:40 25.1 °C 21.4 °C 1012.1 hPa Calm   3.2 km/h 80% 0 mm WeatherDisplay:10.37 W/m2 SCT
18:50 25.2 °C 21.1 °C 1012.1 hPa Calm   4.8 km/h 78% 0 mm WeatherDisplay:10.37 W/m2 SCT
19:00 25.1 °C 20.8 °C 1011.7 hPa Calm   4.8 km/h 77% 0 mm WeatherDisplay:10.37 W/m2 SCT
19:10 24.9 °C 20.4 °C 1012.1 hPa Calm   3.2 km/h 76% 0 mm WeatherDisplay:10.37 W/m2 SCT
19:20 24.5 °C 20.2 °C 1012.1 hPa Calm   3.2 km/h 77% 0 mm WeatherDisplay:10.37 W/m2 SCT
19:30 24.2 °C 20.3 °C 1012.1 hPa Calm   3.2 km/h 79% 0 mm WeatherDisplay:10.37 W/m2 SCT
19:40 23.4 °C 20.4 °C 1012.4 hPa Calm   1.6 km/h 83% 0 mm WeatherDisplay:10.37 W/m2 SCT
19:50 22.7 °C 20.2 °C 1012.8 hPa Calm     86% 1.02 mm WeatherDisplay:10.37 W/m2 RA
20:00 22.3 °C 20.2 °C 1012.8 hPa Calm     88% 0.25 mm WeatherDisplay:10.37 W/m2 SCT
20:10 22.1 °C 20.1 °C 1013.1 hPa Calm     89% 0.51 mm WeatherDisplay:10.37 W/m2 RA
20:20 21.9 °C 20.2 °C 1013.1 hPa Calm     90% 0.76 mm WeatherDisplay:10.37 W/m2 RA
20:30 21.7 °C 20 °C 1013.1 hPa Calm     90% 1.02 mm WeatherDisplay:10.37 W/m2 RA
20:40 21.6 °C 20 °C 1013.4 hPa Calm     91% 1.27 mm WeatherDisplay:10.37 W/m2 RA
20:50 21.5 °C 19.9 °C 1013.4 hPa Calm     91% 1.27 mm WeatherDisplay:10.37 W/m2 RA
21:00 21.4 °C 20.1 °C 1013.4 hPa Calm     92% 2.03 mm WeatherDisplay:10.37 W/m2 RA
21:10 21.4 °C 20.1 °C 1013.1 hPa Calm     92% 0.25 mm WeatherDisplay:10.37 W/m2 SCT
21:20 21.4 °C 20.1 °C 1013.1 hPa Calm     92% 0 mm WeatherDisplay:10.37 W/m2 SCT
21:30 21.4 °C 20.1 °C 1013.1 hPa Calm     92% 0.25 mm WeatherDisplay:10.37 W/m2 SCT
21:50 21.3 °C 19.9 °C 1013.1 hPa Calm     92% 0 mm WeatherDisplay:10.37 W/m2 SCT
22:00 21.3 °C 20.1 °C 1013.1 hPa Calm     93% 0 mm WeatherDisplay:10.37 W/m2 SCT
22:10 21.3 °C 20.1 °C 1013.1 hPa Calm     93% 0 mm WeatherDisplay:10.37 W/m2 SCT
22:20 21.2 °C 20.1 °C 1013.1 hPa Calm     93% 0.76 mm WeatherDisplay:10.37 W/m2 RA
22:30 21.2 °C 20.1 °C 1013.1 hPa Calm     93% 0.51 mm WeatherDisplay:10.37 W/m2 SCT
22:40 21.2 °C 20.1 °C 1013.1 hPa Calm     93% 0.76 mm WeatherDisplay:10.37 W/m2 SCT
22:50 21.3 °C 20.1 °C 1013.1 hPa Calm     93% 0 mm WeatherDisplay:10.37 W/m2 SCT
23:10 21.2 °C 20.1 °C 1013.1 hPa Calm     93% 0 mm WeatherDisplay:10.37 W/m2 SCT
23:20 21.2 °C 20 °C 1013.1 hPa Calm     93% 0 mm WeatherDisplay:10.37 W/m2 SCT
23:30 21.1 °C 19.9 °C 1013.1 hPa Calm     93% 0 mm WeatherDisplay:10.37 W/m2 SCT
23:40 21.1 °C 19.9 °C 1013.1 hPa Calm     93% 0 mm WeatherDisplay:10.37 W/m2 SCT
23:50 21.1 °C 19.9 °C 1013.1 hPa Calm     93% 0 mm WeatherDisplay:10.37 W/m2 SCT
Piedmont Bend
Compliments of Weather Underground - 4 mb